sensor_id;sensor_type;location;lat;lon;timestamp;P1;durP1;ratioP1;P2;durP2;ratioP2
16845;SDS011;8539;53.188;8.696;2024-02-15T00:02:26;29.13;;;16.50;;
16845;SDS011;8539;53.188;8.696;2024-02-15T00:04:54;24.45;;;15.63;;
16845;SDS011;8539;53.188;8.696;2024-02-15T00:07:21;21.40;;;15.48;;
16845;SDS011;8539;53.188;8.696;2024-02-15T00:09:49;21.88;;;15.45;;
16845;SDS011;8539;53.188;8.696;2024-02-15T00:12:16;22.80;;;15.35;;
16845;SDS011;8539;53.188;8.696;2024-02-15T00:14:43;27.05;;;17.55;;
16845;SDS011;8539;53.188;8.696;2024-02-15T00:17:11;19.10;;;14.82;;
16845;SDS011;8539;53.188;8.696;2024-02-15T00:19:38;26.23;;;16.63;;
16845;SDS011;8539;53.188;8.696;2024-02-15T00:22:08;21.63;;;15.70;;
16845;SDS011;8539;53.188;8.696;2024-02-15T00:24:37;24.80;;;17.15;;
16845;SDS011;8539;53.188;8.696;2024-02-15T00:27:05;22.38;;;16.00;;
16845;SDS011;8539;53.188;8.696;2024-02-15T00:29:33;21.35;;;14.93;;
16845;SDS011;8539;53.188;8.696;2024-02-15T00:32:01;25.90;;;16.17;;
16845;SDS011;8539;53.188;8.696;2024-02-15T00:34:30;27.90;;;14.38;;
16845;SDS011;8539;53.188;8.696;2024-02-15T00:36:59;24.90;;;16.13;;
16845;SDS011;8539;53.188;8.696;2024-02-15T00:39:26;22.45;;;15.70;;
16845;SDS011;8539;53.188;8.696;2024-02-15T00:41:53;23.70;;;15.20;;
16845;SDS011;8539;53.188;8.696;2024-02-15T00:44:22;20.80;;;14.60;;
16845;SDS011;8539;53.188;8.696;2024-02-15T00:46:49;21.58;;;13.90;;
16845;SDS011;8539;53.188;8.696;2024-02-15T00:49:17;21.48;;;13.98;;
16845;SDS011;8539;53.188;8.696;2024-02-15T00:51:47;20.50;;;14.68;;
16845;SDS011;8539;53.188;8.696;2024-02-15T00:54:15;24.35;;;15.82;;
16845;SDS011;8539;53.188;8.696;2024-02-15T00:56:43;21.13;;;14.10;;
16845;SDS011;8539;53.188;8.696;2024-02-15T00:59:10;24.02;;;13.55;;
16845;SDS011;8539;53.188;8.696;2024-02-15T01:01:37;24.60;;;15.07;;
16845;SDS011;8539;53.188;8.696;2024-02-15T01:04:05;24.10;;;14.43;;
16845;SDS011;8539;53.188;8.696;2024-02-15T01:06:33;24.85;;;15.75;;
16845;SDS011;8539;53.188;8.696;2024-02-15T01:09:00;20.92;;;14.90;;
16845;SDS011;8539;53.188;8.696;2024-02-15T01:11:32;24.60;;;16.38;;
16845;SDS011;8539;53.188;8.696;2024-02-15T01:13:59;20.85;;;13.98;;
16845;SDS011;8539;53.188;8.696;2024-02-15T01:16:26;21.60;;;14.77;;
16845;SDS011;8539;53.188;8.696;2024-02-15T01:18:54;20.45;;;14.23;;
16845;SDS011;8539;53.188;8.696;2024-02-15T01:21:22;24.70;;;14.80;;
16845;SDS011;8539;53.188;8.696;2024-02-15T01:23:49;23.80;;;15.88;;
16845;SDS011;8539;53.188;8.696;2024-02-15T01:26:17;19.73;;;13.65;;
16845;SDS011;8539;53.188;8.696;2024-02-15T01:28:45;25.48;;;15.65;;
16845;SDS011;8539;53.188;8.696;2024-02-15T01:31:12;25.60;;;15.32;;
16845;SDS011;8539;53.188;8.696;2024-02-15T01:33:39;24.13;;;14.38;;
16845;SDS011;8539;53.188;8.696;2024-02-15T01:36:06;30.92;;;16.35;;
16845;SDS011;8539;53.188;8.696;2024-02-15T01:38:34;23.95;;;14.82;;
16845;SDS011;8539;53.188;8.696;2024-02-15T01:41:01;27.73;;;16.92;;
16845;SDS011;8539;53.188;8.696;2024-02-15T01:43:29;33.67;;;16.65;;
16845;SDS011;8539;53.188;8.696;2024-02-15T01:45:57;32.83;;;17.00;;
16845;SDS011;8539;53.188;8.696;2024-02-15T01:48:28;30.00;;;16.75;;
16845;SDS011;8539;53.188;8.696;2024-02-15T01:50:59;25.67;;;16.10;;
16845;SDS011;8539;53.188;8.696;2024-02-15T01:53:26;26.48;;;15.73;;
16845;SDS011;8539;53.188;8.696;2024-02-15T01:55:54;28.45;;;16.67;;
16845;SDS011;8539;53.188;8.696;2024-02-15T01:58:26;24.02;;;14.93;;
16845;SDS011;8539;53.188;8.696;2024-02-15T02:00:54;25.70;;;15.77;;
16845;SDS011;8539;53.188;8.696;2024-02-15T02:03:23;24.50;;;14.75;;
16845;SDS011;8539;53.188;8.696;2024-02-15T02:05:50;25.13;;;16.38;;
16845;SDS011;8539;53.188;8.696;2024-02-15T02:08:17;22.58;;;15.25;;
16845;SDS011;8539;53.188;8.696;2024-02-15T02:10:44;30.15;;;15.70;;
16845;SDS011;8539;53.188;8.696;2024-02-15T02:13:13;28.55;;;16.23;;
16845;SDS011;8539;53.188;8.696;2024-02-15T02:15:40;30.65;;;15.93;;
16845;SDS011;8539;53.188;8.696;2024-02-15T02:18:07;25.13;;;14.45;;
16845;SDS011;8539;53.188;8.696;2024-02-15T02:20:36;22.55;;;14.13;;
16845;SDS011;8539;53.188;8.696;2024-02-15T02:23:14;25.23;;;14.65;;
16845;SDS011;8539;53.188;8.696;2024-02-15T02:25:42;24.05;;;14.35;;
16845;SDS011;8539;53.188;8.696;2024-02-15T02:28:11;29.77;;;14.60;;
16845;SDS011;8539;53.188;8.696;2024-02-15T02:30:38;30.33;;;16.08;;
16845;SDS011;8539;53.188;8.696;2024-02-15T02:33:11;25.75;;;13.70;;
16845;SDS011;8539;53.188;8.696;2024-02-15T02:35:47;23.27;;;14.15;;
16845;SDS011;8539;53.188;8.696;2024-02-15T02:38:15;27.77;;;14.13;;
16845;SDS011;8539;53.188;8.696;2024-02-15T02:40:42;28.00;;;15.05;;
16845;SDS011;8539;53.188;8.696;2024-02-15T02:43:09;25.80;;;14.70;;
16845;SDS011;8539;53.188;8.696;2024-02-15T02:45:37;27.73;;;14.25;;
16845;SDS011;8539;53.188;8.696;2024-02-15T02:48:04;24.48;;;14.57;;
16845;SDS011;8539;53.188;8.696;2024-02-15T02:50:32;26.55;;;14.75;;
16845;SDS011;8539;53.188;8.696;2024-02-15T02:52:59;31.33;;;15.80;;
16845;SDS011;8539;53.188;8.696;2024-02-15T02:55:26;29.00;;;16.58;;
16845;SDS011;8539;53.188;8.696;2024-02-15T02:57:54;27.55;;;16.15;;
16845;SDS011;8539;53.188;8.696;2024-02-15T03:00:24;28.98;;;16.67;;
16845;SDS011;8539;53.188;8.696;2024-02-15T03:02:51;28.08;;;16.85;;
16845;SDS011;8539;53.188;8.696;2024-02-15T03:05:18;30.25;;;16.35;;
16845;SDS011;8539;53.188;8.696;2024-02-15T03:07:48;25.33;;;16.30;;
16845;SDS011;8539;53.188;8.696;2024-02-15T03:10:18;30.63;;;16.70;;
16845;SDS011;8539;53.188;8.696;2024-02-15T03:12:45;29.98;;;15.98;;
16845;SDS011;8539;53.188;8.696;2024-02-15T03:15:15;31.77;;;16.33;;
16845;SDS011;8539;53.188;8.696;2024-02-15T03:17:46;31.92;;;16.30;;
16845;SDS011;8539;53.188;8.696;2024-02-15T03:20:14;31.33;;;16.33;;
16845;SDS011;8539;53.188;8.696;2024-02-15T03:22:58;24.50;;;15.18;;
16845;SDS011;8539;53.188;8.696;2024-02-15T03:25:27;34.42;;;17.27;;
16845;SDS011;8539;53.188;8.696;2024-02-15T03:27:58;29.23;;;15.82;;
16845;SDS011;8539;53.188;8.696;2024-02-15T03:30:30;29.00;;;16.52;;
16845;SDS011;8539;53.188;8.696;2024-02-15T03:33:00;31.15;;;17.05;;
16845;SDS011;8539;53.188;8.696;2024-02-15T03:35:33;31.20;;;17.67;;
16845;SDS011;8539;53.188;8.696;2024-02-15T03:38:01;27.77;;;16.30;;
16845;SDS011;8539;53.188;8.696;2024-02-15T03:40:28;27.38;;;16.77;;
16845;SDS011;8539;53.188;8.696;2024-02-15T03:42:57;29.52;;;16.95;;
16845;SDS011;8539;53.188;8.696;2024-02-15T03:45:24;24.70;;;14.80;;
16845;SDS011;8539;53.188;8.696;2024-02-15T03:47:52;31.00;;;16.27;;
16845;SDS011;8539;53.188;8.696;2024-02-15T03:50:20;34.75;;;16.95;;
16845;SDS011;8539;53.188;8.696;2024-02-15T03:52:50;30.95;;;17.88;;
16845;SDS011;8539;53.188;8.696;2024-02-15T03:55:17;32.42;;;17.92;;
16845;SDS011;8539;53.188;8.696;2024-02-15T03:57:45;29.63;;;16.02;;
16845;SDS011;8539;53.188;8.696;2024-02-15T04:00:13;30.15;;;17.10;;
16845;SDS011;8539;53.188;8.696;2024-02-15T04:02:47;30.05;;;17.20;;
16845;SDS011;8539;53.188;8.696;2024-02-15T04:05:15;32.90;;;17.92;;
16845;SDS011;8539;53.188;8.696;2024-02-15T04:07:44;32.40;;;17.80;;
16845;SDS011;8539;53.188;8.696;2024-02-15T04:10:12;35.38;;;16.67;;
16845;SDS011;8539;53.188;8.696;2024-02-15T04:12:39;32.13;;;20.00;;
16845;SDS011;8539;53.188;8.696;2024-02-15T04:15:09;33.55;;;18.25;;
16845;SDS011;8539;53.188;8.696;2024-02-15T04:17:40;28.42;;;18.80;;
16845;SDS011;8539;53.188;8.696;2024-02-15T04:20:09;31.25;;;18.98;;
16845;SDS011;8539;53.188;8.696;2024-02-15T04:22:39;29.77;;;18.38;;
16845;SDS011;8539;53.188;8.696;2024-02-15T04:25:09;36.03;;;18.83;;
16845;SDS011;8539;53.188;8.696;2024-02-15T04:27:37;35.40;;;21.00;;
16845;SDS011;8539;53.188;8.696;2024-02-15T04:30:05;32.28;;;19.35;;
16845;SDS011;8539;53.188;8.696;2024-02-15T04:32:35;35.22;;;18.52;;
16845;SDS011;8539;53.188;8.696;2024-02-15T04:35:03;29.95;;;17.60;;
16845;SDS011;8539;53.188;8.696;2024-02-15T04:37:34;31.90;;;17.95;;
16845;SDS011;8539;53.188;8.696;2024-02-15T04:40:02;37.40;;;18.27;;
16845;SDS011;8539;53.188;8.696;2024-02-15T04:42:36;36.20;;;19.98;;
16845;SDS011;8539;53.188;8.696;2024-02-15T04:45:06;37.08;;;19.20;;
16845;SDS011;8539;53.188;8.696;2024-02-15T04:47:35;32.97;;;19.27;;
16845;SDS011;8539;53.188;8.696;2024-02-15T04:50:03;34.20;;;16.92;;
16845;SDS011;8539;53.188;8.696;2024-02-15T04:52:32;33.42;;;18.20;;
16845;SDS011;8539;53.188;8.696;2024-02-15T04:55:00;35.85;;;19.70;;
16845;SDS011;8539;53.188;8.696;2024-02-15T04:57:32;37.80;;;17.98;;
16845;SDS011;8539;53.188;8.696;2024-02-15T05:00:01;32.97;;;17.88;;
16845;SDS011;8539;53.188;8.696;2024-02-15T05:02:31;32.45;;;18.08;;
16845;SDS011;8539;53.188;8.696;2024-02-15T05:04:58;37.58;;;18.95;;
16845;SDS011;8539;53.188;8.696;2024-02-15T05:07:25;30.02;;;17.27;;
16845;SDS011;8539;53.188;8.696;2024-02-15T05:09:53;31.85;;;17.08;;
16845;SDS011;8539;53.188;8.696;2024-02-15T05:12:23;36.85;;;17.20;;
16845;SDS011;8539;53.188;8.696;2024-02-15T05:14:53;30.00;;;18.30;;
16845;SDS011;8539;53.188;8.696;2024-02-15T05:17:21;31.73;;;17.30;;
16845;SDS011;8539;53.188;8.696;2024-02-15T05:19:49;29.35;;;16.63;;
16845;SDS011;8539;53.188;8.696;2024-02-15T05:22:17;38.42;;;18.13;;
16845;SDS011;8539;53.188;8.696;2024-02-15T05:24:47;37.65;;;17.35;;
16845;SDS011;8539;53.188;8.696;2024-02-15T05:27:14;36.05;;;18.42;;
16845;SDS011;8539;53.188;8.696;2024-02-15T05:29:43;37.85;;;19.63;;
16845;SDS011;8539;53.188;8.696;2024-02-15T05:32:10;36.50;;;18.73;;
16845;SDS011;8539;53.188;8.696;2024-02-15T05:34:38;37.35;;;18.38;;
16845;SDS011;8539;53.188;8.696;2024-02-15T05:37:07;38.20;;;19.83;;
16845;SDS011;8539;53.188;8.696;2024-02-15T05:39:34;34.03;;;17.60;;
16845;SDS011;8539;53.188;8.696;2024-02-15T05:42:01;37.95;;;20.58;;
16845;SDS011;8539;53.188;8.696;2024-02-15T05:44:28;31.20;;;18.63;;
16845;SDS011;8539;53.188;8.696;2024-02-15T05:46:56;41.88;;;19.40;;
16845;SDS011;8539;53.188;8.696;2024-02-15T05:49:23;38.92;;;19.45;;
16845;SDS011;8539;53.188;8.696;2024-02-15T05:51:50;34.67;;;18.45;;
16845;SDS011;8539;53.188;8.696;2024-02-15T05:54:20;35.05;;;18.25;;
16845;SDS011;8539;53.188;8.696;2024-02-15T05:56:51;45.63;;;21.42;;
16845;SDS011;8539;53.188;8.696;2024-02-15T05:59:20;38.65;;;19.80;;
16845;SDS011;8539;53.188;8.696;2024-02-15T06:01:48;41.83;;;22.35;;
16845;SDS011;8539;53.188;8.696;2024-02-15T06:04:15;40.42;;;21.15;;
16845;SDS011;8539;53.188;8.696;2024-02-15T06:06:43;46.40;;;23.67;;
16845;SDS011;8539;53.188;8.696;2024-02-15T06:09:16;34.65;;;20.25;;
16845;SDS011;8539;53.188;8.696;2024-02-15T06:11:44;43.65;;;21.70;;
16845;SDS011;8539;53.188;8.696;2024-02-15T06:14:12;45.40;;;21.88;;
16845;SDS011;8539;53.188;8.696;2024-02-15T06:16:43;41.65;;;22.13;;
16845;SDS011;8539;53.188;8.696;2024-02-15T06:19:11;53.03;;;25.15;;
16845;SDS011;8539;53.188;8.696;2024-02-15T06:21:38;45.38;;;23.60;;
16845;SDS011;8539;53.188;8.696;2024-02-15T06:24:06;45.40;;;25.35;;
16845;SDS011;8539;53.188;8.696;2024-02-15T06:26:33;48.15;;;25.48;;
16845;SDS011;8539;53.188;8.696;2024-02-15T06:29:00;46.20;;;23.80;;
16845;SDS011;8539;53.188;8.696;2024-02-15T06:31:47;47.47;;;25.65;;
16845;SDS011;8539;53.188;8.696;2024-02-15T06:34:32;49.30;;;25.73;;
16845;SDS011;8539;53.188;8.696;2024-02-15T06:37:36;43.58;;;21.92;;
16845;SDS011;8539;53.188;8.696;2024-02-15T06:40:23;38.08;;;20.38;;
16845;SDS011;8539;53.188;8.696;2024-02-15T06:42:51;48.20;;;23.35;;
16845;SDS011;8539;53.188;8.696;2024-02-15T06:45:18;36.25;;;20.45;;
16845;SDS011;8539;53.188;8.696;2024-02-15T06:47:46;40.60;;;21.08;;
16845;SDS011;8539;53.188;8.696;2024-02-15T06:50:14;40.38;;;21.52;;
16845;SDS011;8539;53.188;8.696;2024-02-15T06:52:42;37.85;;;21.17;;
16845;SDS011;8539;53.188;8.696;2024-02-15T06:55:10;39.40;;;22.08;;
16845;SDS011;8539;53.188;8.696;2024-02-15T06:57:39;36.78;;;20.98;;
16845;SDS011;8539;53.188;8.696;2024-02-15T07:00:07;44.83;;;22.30;;
16845;SDS011;8539;53.188;8.696;2024-02-15T07:02:41;45.45;;;22.98;;
16845;SDS011;8539;53.188;8.696;2024-02-15T07:05:11;42.47;;;24.20;;
16845;SDS011;8539;53.188;8.696;2024-02-15T07:07:38;40.60;;;23.38;;
16845;SDS011;8539;53.188;8.696;2024-02-15T07:10:06;43.67;;;24.02;;
16845;SDS011;8539;53.188;8.696;2024-02-15T07:12:35;41.80;;;24.40;;
16845;SDS011;8539;53.188;8.696;2024-02-15T07:15:04;43.70;;;22.77;;
16845;SDS011;8539;53.188;8.696;2024-02-15T07:17:36;42.17;;;24.33;;
16845;SDS011;8539;53.188;8.696;2024-02-15T07:20:07;39.83;;;24.35;;
16845;SDS011;8539;53.188;8.696;2024-02-15T07:22:37;47.63;;;26.25;;
16845;SDS011;8539;53.188;8.696;2024-02-15T07:25:05;49.80;;;26.05;;
16845;SDS011;8539;53.188;8.696;2024-02-15T07:27:32;36.95;;;23.23;;
16845;SDS011;8539;53.188;8.696;2024-02-15T07:30:01;42.88;;;25.88;;
16845;SDS011;8539;53.188;8.696;2024-02-15T07:32:31;43.33;;;25.05;;
16845;SDS011;8539;53.188;8.696;2024-02-15T07:35:01;47.63;;;25.00;;
16845;SDS011;8539;53.188;8.696;2024-02-15T07:37:29;48.10;;;26.45;;
16845;SDS011;8539;53.188;8.696;2024-02-15T07:39:56;42.67;;;22.35;;
16845;SDS011;8539;53.188;8.696;2024-02-15T07:42:24;39.70;;;23.00;;
16845;SDS011;8539;53.188;8.696;2024-02-15T07:44:52;44.17;;;23.83;;
16845;SDS011;8539;53.188;8.696;2024-02-15T07:47:25;38.95;;;23.80;;
16845;SDS011;8539;53.188;8.696;2024-02-15T07:49:54;41.20;;;24.23;;
16845;SDS011;8539;53.188;8.696;2024-02-15T07:52:21;38.17;;;24.13;;
16845;SDS011;8539;53.188;8.696;2024-02-15T07:54:48;41.20;;;24.70;;
16845;SDS011;8539;53.188;8.696;2024-02-15T07:57:16;44.42;;;25.70;;
16845;SDS011;8539;53.188;8.696;2024-02-15T07:59:43;41.42;;;25.20;;
16845;SDS011;8539;53.188;8.696;2024-02-15T08:02:11;43.33;;;23.63;;
16845;SDS011;8539;53.188;8.696;2024-02-15T08:04:39;40.85;;;23.90;;
16845;SDS011;8539;53.188;8.696;2024-02-15T08:07:07;39.17;;;24.52;;
16845;SDS011;8539;53.188;8.696;2024-02-15T08:09:38;42.35;;;26.13;;
16845;SDS011;8539;53.188;8.696;2024-02-15T08:12:09;43.88;;;26.40;;
16845;SDS011;8539;53.188;8.696;2024-02-15T08:14:43;40.95;;;25.50;;
16845;SDS011;8539;53.188;8.696;2024-02-15T08:17:10;42.50;;;25.25;;
16845;SDS011;8539;53.188;8.696;2024-02-15T08:19:39;42.00;;;26.35;;
16845;SDS011;8539;53.188;8.696;2024-02-15T08:22:12;45.78;;;26.98;;
16845;SDS011;8539;53.188;8.696;2024-02-15T08:24:40;50.13;;;26.30;;
16845;SDS011;8539;53.188;8.696;2024-02-15T08:27:07;48.47;;;28.25;;
16845;SDS011;8539;53.188;8.696;2024-02-15T08:29:34;39.40;;;25.90;;
16845;SDS011;8539;53.188;8.696;2024-02-15T08:32:02;40.67;;;24.65;;
16845;SDS011;8539;53.188;8.696;2024-02-15T08:34:31;70.05;;;29.50;;
16845;SDS011;8539;53.188;8.696;2024-02-15T08:37:01;41.55;;;27.20;;
16845;SDS011;8539;53.188;8.696;2024-02-15T08:39:30;51.88;;;26.90;;
16845;SDS011;8539;53.188;8.696;2024-02-15T08:41:58;44.38;;;26.25;;
16845;SDS011;8539;53.188;8.696;2024-02-15T08:44:29;46.72;;;25.65;;
16845;SDS011;8539;53.188;8.696;2024-02-15T08:46:56;40.35;;;24.85;;
16845;SDS011;8539;53.188;8.696;2024-02-15T08:49:25;47.05;;;27.17;;
16845;SDS011;8539;53.188;8.696;2024-02-15T08:52:00;43.22;;;26.67;;
16845;SDS011;8539;53.188;8.696;2024-02-15T08:54:28;46.78;;;26.92;;
16845;SDS011;8539;53.188;8.696;2024-02-15T08:56:55;38.60;;;25.17;;
16845;SDS011;8539;53.188;8.696;2024-02-15T08:59:22;45.03;;;25.27;;
16845;SDS011;8539;53.188;8.696;2024-02-15T09:01:51;40.22;;;25.80;;
16845;SDS011;8539;53.188;8.696;2024-02-15T09:04:22;36.42;;;25.20;;
16845;SDS011;8539;53.188;8.696;2024-02-15T09:07:11;34.45;;;25.77;;
16845;SDS011;8539;53.188;8.696;2024-02-15T09:09:46;40.75;;;25.65;;
16845;SDS011;8539;53.188;8.696;2024-02-15T09:12:18;50.25;;;26.08;;
16845;SDS011;8539;53.188;8.696;2024-02-15T09:14:45;42.38;;;25.85;;
16845;SDS011;8539;53.188;8.696;2024-02-15T09:17:28;41.50;;;25.48;;
16845;SDS011;8539;53.188;8.696;2024-02-15T09:20:01;43.70;;;26.05;;
16845;SDS011;8539;53.188;8.696;2024-02-15T09:22:42;38.15;;;26.23;;
16845;SDS011;8539;53.188;8.696;2024-02-15T09:25:19;43.05;;;27.40;;
16845;SDS011;8539;53.188;8.696;2024-02-15T09:27:47;49.75;;;27.75;;
16845;SDS011;8539;53.188;8.696;2024-02-15T09:30:21;38.42;;;26.92;;
16845;SDS011;8539;53.188;8.696;2024-02-15T09:33:11;43.50;;;28.98;;
16845;SDS011;8539;53.188;8.696;2024-02-15T09:35:42;43.08;;;26.77;;
16845;SDS011;8539;53.188;8.696;2024-02-15T09:38:12;41.55;;;26.35;;
16845;SDS011;8539;53.188;8.696;2024-02-15T09:40:39;49.88;;;28.42;;
16845;SDS011;8539;53.188;8.696;2024-02-15T09:43:07;53.35;;;28.23;;
16845;SDS011;8539;53.188;8.696;2024-02-15T09:45:36;43.97;;;28.48;;
16845;SDS011;8539;53.188;8.696;2024-02-15T09:48:10;46.35;;;28.08;;
16845;SDS011;8539;53.188;8.696;2024-02-15T09:50:41;43.33;;;28.80;;
16845;SDS011;8539;53.188;8.696;2024-02-15T09:53:10;47.38;;;28.38;;
16845;SDS011;8539;53.188;8.696;2024-02-15T09:55:41;46.65;;;28.63;;
16845;SDS011;8539;53.188;8.696;2024-02-15T09:58:10;47.15;;;28.38;;
16845;SDS011;8539;53.188;8.696;2024-02-15T10:00:48;42.13;;;27.40;;
16845;SDS011;8539;53.188;8.696;2024-02-15T10:03:18;42.45;;;28.58;;
16845;SDS011;8539;53.188;8.696;2024-02-15T10:05:48;44.65;;;28.25;;
16845;SDS011;8539;53.188;8.696;2024-02-15T10:08:18;41.10;;;27.42;;
16845;SDS011;8539;53.188;8.696;2024-02-15T10:10:48;44.65;;;27.38;;
16845;SDS011;8539;53.188;8.696;2024-02-15T10:13:33;53.55;;;32.88;;
16845;SDS011;8539;53.188;8.696;2024-02-15T10:16:14;52.97;;;30.20;;
16845;SDS011;8539;53.188;8.696;2024-02-15T10:18:45;46.55;;;28.58;;
16845;SDS011;8539;53.188;8.696;2024-02-15T10:21:23;52.75;;;30.80;;
16845;SDS011;8539;53.188;8.696;2024-02-15T10:24:06;48.10;;;31.50;;
16845;SDS011;8539;53.188;8.696;2024-02-15T10:26:35;46.83;;;28.52;;
16845;SDS011;8539;53.188;8.696;2024-02-15T10:29:09;50.05;;;30.98;;
16845;SDS011;8539;53.188;8.696;2024-02-15T10:45:55;44.63;;;29.40;;
16845;SDS011;8539;53.188;8.696;2024-02-15T10:48:23;40.70;;;27.13;;
16845;SDS011;8539;53.188;8.696;2024-02-15T10:50:51;46.15;;;27.15;;
16845;SDS011;8539;53.188;8.696;2024-02-15T10:55:57;38.58;;;24.30;;
16845;SDS011;8539;53.188;8.696;2024-02-15T10:58:50;38.03;;;25.13;;
16845;SDS011;8539;53.188;8.696;2024-02-15T11:01:35;34.05;;;24.48;;
16845;SDS011;8539;53.188;8.696;2024-02-15T11:04:08;33.50;;;24.67;;
16845;SDS011;8539;53.188;8.696;2024-02-15T11:06:41;37.70;;;24.45;;
16845;SDS011;8539;53.188;8.696;2024-02-15T11:09:11;37.35;;;24.38;;
16845;SDS011;8539;53.188;8.696;2024-02-15T11:11:40;37.22;;;24.63;;
16845;SDS011;8539;53.188;8.696;2024-02-15T11:14:26;35.15;;;24.45;;
16845;SDS011;8539;53.188;8.696;2024-02-15T11:17:01;38.72;;;26.52;;
16845;SDS011;8539;53.188;8.696;2024-02-15T11:22:01;42.97;;;26.90;;
16845;SDS011;8539;53.188;8.696;2024-02-15T11:27:23;34.22;;;25.55;;
16845;SDS011;8539;53.188;8.696;2024-02-15T11:29:55;37.90;;;25.77;;
16845;SDS011;8539;53.188;8.696;2024-02-15T11:32:34;41.25;;;26.90;;
16845;SDS011;8539;53.188;8.696;2024-02-15T11:35:07;39.40;;;26.80;;
16845;SDS011;8539;53.188;8.696;2024-02-15T11:42:56;36.95;;;27.45;;
16845;SDS011;8539;53.188;8.696;2024-02-15T11:45:28;44.03;;;29.48;;
16845;SDS011;8539;53.188;8.696;2024-02-15T11:48:08;39.25;;;26.42;;
16845;SDS011;8539;53.188;8.696;2024-02-15T11:50:39;43.45;;;29.02;;
16845;SDS011;8539;53.188;8.696;2024-02-15T11:53:07;45.70;;;27.75;;
16845;SDS011;8539;53.188;8.696;2024-02-15T11:55:38;46.45;;;27.75;;
16845;SDS011;8539;53.188;8.696;2024-02-15T11:58:08;36.65;;;28.08;;
16845;SDS011;8539;53.188;8.696;2024-02-15T12:00:37;46.88;;;29.98;;
16845;SDS011;8539;53.188;8.696;2024-02-15T12:03:24;41.00;;;29.70;;
16845;SDS011;8539;53.188;8.696;2024-02-15T12:06:32;41.45;;;27.67;;
16845;SDS011;8539;53.188;8.696;2024-02-15T12:09:18;38.20;;;27.02;;
16845;SDS011;8539;53.188;8.696;2024-02-15T12:12:05;41.35;;;27.77;;
16845;SDS011;8539;53.188;8.696;2024-02-15T12:15:00;41.08;;;29.17;;
16845;SDS011;8539;53.188;8.696;2024-02-15T12:17:47;42.35;;;27.58;;
16845;SDS011;8539;53.188;8.696;2024-02-15T12:20:34;31.15;;;26.55;;
16845;SDS011;8539;53.188;8.696;2024-02-15T12:23:02;37.78;;;27.25;;
16845;SDS011;8539;53.188;8.696;2024-02-15T12:25:34;36.42;;;27.20;;
16845;SDS011;8539;53.188;8.696;2024-02-15T12:28:02;35.92;;;26.83;;
16845;SDS011;8539;53.188;8.696;2024-02-15T12:30:34;30.17;;;25.08;;
16845;SDS011;8539;53.188;8.696;2024-02-15T12:33:09;37.00;;;27.10;;
16845;SDS011;8539;53.188;8.696;2024-02-15T12:35:50;31.48;;;25.98;;
16845;SDS011;8539;53.188;8.696;2024-02-15T12:38:17;32.75;;;25.83;;
16845;SDS011;8539;53.188;8.696;2024-02-15T12:40:45;26.80;;;23.40;;
16845;SDS011;8539;53.188;8.696;2024-02-15T12:43:15;35.08;;;25.02;;
16845;SDS011;8539;53.188;8.696;2024-02-15T12:45:42;27.95;;;23.98;;
16845;SDS011;8539;53.188;8.696;2024-02-15T12:48:09;33.92;;;24.85;;
16845;SDS011;8539;53.188;8.696;2024-02-15T12:50:42;30.92;;;23.25;;
16845;SDS011;8539;53.188;8.696;2024-02-15T12:53:09;32.25;;;24.70;;
16845;SDS011;8539;53.188;8.696;2024-02-15T12:55:38;31.30;;;24.38;;
16845;SDS011;8539;53.188;8.696;2024-02-15T12:58:12;25.23;;;22.33;;
16845;SDS011;8539;53.188;8.696;2024-02-15T13:00:42;28.98;;;23.95;;
16845;SDS011;8539;53.188;8.696;2024-02-15T13:03:11;29.75;;;23.00;;
16845;SDS011;8539;53.188;8.696;2024-02-15T13:05:40;27.67;;;23.90;;
16845;SDS011;8539;53.188;8.696;2024-02-15T13:08:08;32.45;;;24.55;;
16845;SDS011;8539;53.188;8.696;2024-02-15T13:10:41;28.10;;;23.85;;
16845;SDS011;8539;53.188;8.696;2024-02-15T13:13:08;28.02;;;22.90;;
16845;SDS011;8539;53.188;8.696;2024-02-15T13:15:36;32.63;;;24.48;;
16845;SDS011;8539;53.188;8.696;2024-02-15T13:18:05;25.08;;;22.40;;
16845;SDS011;8539;53.188;8.696;2024-02-15T13:20:32;32.53;;;22.75;;
16845;SDS011;8539;53.188;8.696;2024-02-15T13:23:02;26.20;;;23.40;;
16845;SDS011;8539;53.188;8.696;2024-02-15T13:25:35;26.63;;;23.83;;
16845;SDS011;8539;53.188;8.696;2024-02-15T13:28:03;26.85;;;24.05;;
16845;SDS011;8539;53.188;8.696;2024-02-15T13:30:31;28.30;;;22.25;;
16845;SDS011;8539;53.188;8.696;2024-02-15T13:33:00;27.15;;;23.42;;
16845;SDS011;8539;53.188;8.696;2024-02-15T13:35:28;29.92;;;24.35;;
16845;SDS011;8539;53.188;8.696;2024-02-15T13:37:56;24.88;;;22.25;;
16845;SDS011;8539;53.188;8.696;2024-02-15T13:40:26;24.73;;;22.13;;
16845;SDS011;8539;53.188;8.696;2024-02-15T13:42:55;23.23;;;20.92;;
16845;SDS011;8539;53.188;8.696;2024-02-15T13:45:28;25.38;;;21.77;;
16845;SDS011;8539;53.188;8.696;2024-02-15T13:47:58;23.50;;;21.03;;
16845;SDS011;8539;53.188;8.696;2024-02-15T13:50:28;23.95;;;21.02;;
16845;SDS011;8539;53.188;8.696;2024-02-15T13:52:56;22.58;;;20.05;;
16845;SDS011;8539;53.188;8.696;2024-02-15T13:55:26;29.00;;;20.60;;
16845;SDS011;8539;53.188;8.696;2024-02-15T13:57:54;23.77;;;20.80;;
16845;SDS011;8539;53.188;8.696;2024-02-15T14:00:26;21.70;;;19.67;;
16845;SDS011;8539;53.188;8.696;2024-02-15T14:02:57;20.42;;;17.65;;
16845;SDS011;8539;53.188;8.696;2024-02-15T14:05:26;21.20;;;19.00;;
16845;SDS011;8539;53.188;8.696;2024-02-15T14:07:59;19.33;;;17.30;;
16845;SDS011;8539;53.188;8.696;2024-02-15T14:10:30;18.42;;;16.63;;
16845;SDS011;8539;53.188;8.696;2024-02-15T14:12:58;20.42;;;16.50;;
16845;SDS011;8539;53.188;8.696;2024-02-15T14:15:27;17.30;;;15.63;;
16845;SDS011;8539;53.188;8.696;2024-02-15T14:17:55;16.73;;;15.23;;
16845;SDS011;8539;53.188;8.696;2024-02-15T14:20:24;17.35;;;15.57;;
16845;SDS011;8539;53.188;8.696;2024-02-15T14:22:51;16.58;;;14.65;;
16845;SDS011;8539;53.188;8.696;2024-02-15T14:25:23;15.85;;;14.10;;
16845;SDS011;8539;53.188;8.696;2024-02-15T14:27:57;15.60;;;14.13;;
16845;SDS011;8539;53.188;8.696;2024-02-15T14:30:25;16.35;;;14.02;;
16845;SDS011;8539;53.188;8.696;2024-02-15T14:33:10;18.63;;;16.23;;
16845;SDS011;8539;53.188;8.696;2024-02-15T14:35:48;16.75;;;14.95;;
16845;SDS011;8539;53.188;8.696;2024-02-15T14:38:16;20.83;;;15.95;;
16845;SDS011;8539;53.188;8.696;2024-02-15T14:40:47;20.95;;;17.02;;
16845;SDS011;8539;53.188;8.696;2024-02-15T14:55:29;18.73;;;16.48;;
16845;SDS011;8539;53.188;8.696;2024-02-15T14:57:58;17.67;;;14.15;;
16845;SDS011;8539;53.188;8.696;2024-02-15T15:00:28;15.85;;;14.23;;
16845;SDS011;8539;53.188;8.696;2024-02-15T15:03:03;15.98;;;13.48;;
16845;SDS011;8539;53.188;8.696;2024-02-15T15:05:34;15.13;;;12.45;;
16845;SDS011;8539;53.188;8.696;2024-02-15T15:08:19;13.55;;;12.25;;
16845;SDS011;8539;53.188;8.696;2024-02-15T15:11:05;14.73;;;13.38;;
16845;SDS011;8539;53.188;8.696;2024-02-15T15:13:52;14.50;;;13.07;;
16845;SDS011;8539;53.188;8.696;2024-02-15T15:16:19;27.00;;;15.60;;
16845;SDS011;8539;53.188;8.696;2024-02-15T15:18:48;15.32;;;13.70;;
16845;SDS011;8539;53.188;8.696;2024-02-15T15:21:16;15.27;;;13.68;;
16845;SDS011;8539;53.188;8.696;2024-02-15T15:23:44;15.45;;;12.98;;
16845;SDS011;8539;53.188;8.696;2024-02-15T15:26:11;14.55;;;13.05;;
16845;SDS011;8539;53.188;8.696;2024-02-15T15:28:46;15.68;;;12.70;;
16845;SDS011;8539;53.188;8.696;2024-02-15T15:31:14;14.30;;;12.60;;
16845;SDS011;8539;53.188;8.696;2024-02-15T15:33:42;14.95;;;12.30;;